sensor_id;sensor_type;location;lat;lon;timestamp;pressure;altitude;pressure_sealevel;temperature;humidity
75420;BME280;63998;52.488;13.428;2022-10-30T00:00:11;101418.47;;;16.85;75.21
75420;BME280;63998;52.488;13.428;2022-10-30T00:02:36;101422.00;;;16.84;75.08
75420;BME280;63998;52.488;13.428;2022-10-30T00:05:02;101414.97;;;16.86;74.88
75420;BME280;63998;52.488;13.428;2022-10-30T00:07:27;101428.06;;;16.88;74.77
75420;BME280;63998;52.488;13.428;2022-10-30T00:09:53;101420.19;;;16.90;74.52
75420;BME280;63998;52.488;13.428;2022-10-30T00:12:18;101421.97;;;16.87;74.68
75420;BME280;63998;52.488;13.428;2022-10-30T00:14:43;101412.38;;;16.85;74.87
75420;BME280;63998;52.488;13.428;2022-10-30T00:17:09;101407.13;;;16.85;74.77
75420;BME280;63998;52.488;13.428;2022-10-30T00:19:34;101403.66;;;16.81;74.60
75420;BME280;63998;52.488;13.428;2022-10-30T00:22:01;101414.22;;;16.78;74.81
75420;BME280;63998;52.488;13.428;2022-10-30T00:24:29;101402.88;;;16.76;74.41
75420;BME280;63998;52.488;13.428;2022-10-30T00:26:55;101409.91;;;16.71;74.51
75420;BME280;63998;52.488;13.428;2022-10-30T00:29:20;101398.63;;;16.66;75.06
75420;BME280;63998;52.488;13.428;2022-10-30T00:31:49;101397.78;;;16.64;75.02
75420;BME280;63998;52.488;13.428;2022-10-30T00:34:14;101402.16;;;16.61;74.96
75420;BME280;63998;52.488;13.428;2022-10-30T00:36:42;101403.03;;;16.58;75.22
75420;BME280;63998;52.488;13.428;2022-10-30T00:39:07;101398.72;;;16.56;75.20
75420;BME280;63998;52.488;13.428;2022-10-30T00:41:33;101404.84;;;16.56;75.13
75420;BME280;63998;52.488;13.428;2022-10-30T00:44:00;101399.63;;;16.53;74.86
75420;BME280;63998;52.488;13.428;2022-10-30T00:46:36;101403.16;;;16.50;75.19
75420;BME280;63998;52.488;13.428;2022-10-30T00:49:15;101397.91;;;16.49;75.01
75420;BME280;63998;52.488;13.428;2022-10-30T00:51:51;101403.16;;;16.49;75.06
75420;BME280;63998;52.488;13.428;2022-10-30T00:54:19;101392.69;;;16.49;75.06
75420;BME280;63998;52.488;13.428;2022-10-30T00:56:48;101387.47;;;16.46;75.18
75420;BME280;63998;52.488;13.428;2022-10-30T00:59:18;101390.94;;;16.48;75.20
75420;BME280;63998;52.488;13.428;2022-10-30T01:01:45;101390.97;;;16.45;74.89
75420;BME280;63998;52.488;13.428;2022-10-30T01:04:14;101384.03;;;16.41;75.14
75420;BME280;63998;52.488;13.428;2022-10-30T01:06:45;101370.94;;;16.39;75.14
75420;BME280;63998;52.488;13.428;2022-10-30T01:09:15;101375.41;;;16.31;75.37
75420;BME280;63998;52.488;13.428;2022-10-30T01:11:40;101370.22;;;16.27;75.27
75420;BME280;63998;52.488;13.428;2022-10-30T01:14:07;101373.69;;;16.29;75.36
75420;BME280;63998;52.488;13.428;2022-10-30T01:22:01;101364.22;;;16.17;75.46
75420;BME280;63998;52.488;13.428;2022-10-30T01:27:16;101361.59;;;16.15;75.50
75420;BME280;63998;52.488;13.428;2022-10-30T01:30:05;101365.22;;;16.05;75.53
75420;BME280;63998;52.488;13.428;2022-10-30T01:32:48;101366.97;;;16.03;75.70
75420;BME280;63998;52.488;13.428;2022-10-30T01:35:33;101360.03;;;15.99;75.59
75420;BME280;63998;52.488;13.428;2022-10-30T01:38:28;101361.75;;;16.00;75.57
75420;BME280;63998;52.488;13.428;2022-10-30T01:40:56;101353.06;;;15.95;75.71
75420;BME280;63998;52.488;13.428;2022-10-30T01:43:21;101355.69;;;15.95;75.86
75420;BME280;63998;52.488;13.428;2022-10-30T01:57:12;101346.16;;;15.91;75.99
75420;BME280;63998;52.488;13.428;2022-10-30T01:59:46;101337.44;;;15.89;75.62
75420;BME280;63998;52.488;13.428;2022-10-30T02:02:16;101327.00;;;15.83;76.04
75420;BME280;63998;52.488;13.428;2022-10-30T02:04:42;101327.06;;;15.80;75.94
75420;BME280;63998;52.488;13.428;2022-10-30T02:07:10;101320.13;;;15.73;76.27
75420;BME280;63998;52.488;13.428;2022-10-30T02:09:37;101327.09;;;15.74;76.32
75420;BME280;63998;52.488;13.428;2022-10-30T02:12:07;101334.09;;;15.72;76.52
75420;BME280;63998;52.488;13.428;2022-10-30T02:14:44;101335.91;;;15.67;76.46
75420;BME280;63998;52.488;13.428;2022-10-30T02:17:14;101332.44;;;15.65;76.67
75420;BME280;63998;52.488;13.428;2022-10-30T02:19:40;101335.94;;;15.64;76.28
75420;BME280;63998;52.488;13.428;2022-10-30T02:22:07;101336.84;;;15.60;76.21
75420;BME280;63998;52.488;13.428;2022-10-30T02:24:33;101327.31;;;15.46;76.87
75420;BME280;63998;52.488;13.428;2022-10-30T02:26:58;101330.88;;;15.39;77.27
75420;BME280;63998;52.488;13.428;2022-10-30T02:29:24;101329.13;;;15.38;77.33
75420;BME280;63998;52.488;13.428;2022-10-30T02:31:49;101329.16;;;15.35;77.48
75420;BME280;63998;52.488;13.428;2022-10-30T02:34:15;101322.16;;;15.40;77.50
75420;BME280;63998;52.488;13.428;2022-10-30T02:36:42;101325.66;;;15.39;77.29
75420;BME280;63998;52.488;13.428;2022-10-30T02:39:10;101321.25;;;15.43;77.05
75420;BME280;63998;52.488;13.428;2022-10-30T02:41:36;101320.34;;;15.45;76.89
75420;BME280;63998;52.488;13.428;2022-10-30T02:44:01;101315.09;;;15.45;76.54
75420;BME280;63998;52.488;13.428;2022-10-30T02:46:27;101319.53;;;15.42;76.69
75420;BME280;63998;52.488;13.428;2022-10-30T02:48:52;101313.44;;;15.38;76.62
75420;BME280;63998;52.488;13.428;2022-10-30T02:51:18;101313.41;;;15.41;76.79
75420;BME280;63998;52.488;13.428;2022-10-30T02:53:45;101311.78;;;15.28;76.46
75420;BME280;63998;52.488;13.428;2022-10-30T02:56:11;101317.03;;;15.25;77.44
75420;BME280;63998;52.488;13.428;2022-10-30T02:58:40;101303.16;;;15.17;77.59
75420;BME280;63998;52.488;13.428;2022-10-30T03:01:14;101311.88;;;15.13;77.64
75420;BME280;63998;52.488;13.428;2022-10-30T03:03:40;101323.22;;;15.15;77.65
75420;BME280;63998;52.488;13.428;2022-10-30T03:06:07;101318.88;;;15.11;77.82
75420;BME280;63998;52.488;13.428;2022-10-30T03:08:36;101315.34;;;15.18;77.73
75420;BME280;63998;52.488;13.428;2022-10-30T03:11:09;101326.66;;;15.22;77.68
75420;BME280;63998;52.488;13.428;2022-10-30T03:13:38;101324.00;;;15.26;77.63
75420;BME280;63998;52.488;13.428;2022-10-30T03:16:16;101337.09;;;15.28;77.58
75420;BME280;63998;52.488;13.428;2022-10-30T03:18:42;101332.72;;;15.28;77.15
75420;BME280;63998;52.488;13.428;2022-10-30T03:21:09;101333.56;;;15.32;77.31
75420;BME280;63998;52.488;13.428;2022-10-30T03:23:34;101333.59;;;15.26;77.25
75420;BME280;63998;52.488;13.428;2022-10-30T03:26:00;101330.19;;;15.18;77.96
75420;BME280;63998;52.488;13.428;2022-10-30T03:28:29;101326.72;;;15.14;78.12
75420;BME280;63998;52.488;13.428;2022-10-30T03:31:02;101322.34;;;15.13;78.02
75420;BME280;63998;52.488;13.428;2022-10-30T03:33:31;101318.88;;;15.11;78.32
75420;BME280;63998;52.488;13.428;2022-10-30T03:35:59;101319.81;;;15.07;78.37
75420;BME280;63998;52.488;13.428;2022-10-30T03:38:24;101316.34;;;15.02;78.56
75420;BME280;63998;52.488;13.428;2022-10-30T03:40:51;101320.66;;;15.07;78.41
75420;BME280;63998;52.488;13.428;2022-10-30T03:43:17;101318.00;;;15.09;78.45
75420;BME280;63998;52.488;13.428;2022-10-30T03:45:51;101309.28;;;15.08;78.57
75420;BME280;63998;52.488;13.428;2022-10-30T03:48:17;101297.03;;;15.18;78.07
75420;BME280;63998;52.488;13.428;2022-10-30T03:50:43;101301.31;;;15.25;77.77
75420;BME280;63998;52.488;13.428;2022-10-30T03:53:09;101296.06;;;15.30;77.84
75420;BME280;63998;52.488;13.428;2022-10-30T03:55:34;101288.19;;;15.31;77.12
75420;BME280;63998;52.488;13.428;2022-10-30T03:58:03;101284.63;;;15.38;77.35
75420;BME280;63998;52.488;13.428;2022-10-30T04:00:28;101275.88;;;15.42;77.11
75420;BME280;63998;52.488;13.428;2022-10-30T04:02:53;101280.25;;;15.40;76.96
75420;BME280;63998;52.488;13.428;2022-10-30T04:05:25;101291.63;;;15.36;76.95
75420;BME280;63998;52.488;13.428;2022-10-30T04:07:58;101284.59;;;15.43;76.67
75420;BME280;63998;52.488;13.428;2022-10-30T04:10:24;101279.38;;;15.44;76.74
75420;BME280;63998;52.488;13.428;2022-10-30T04:12:50;101276.69;;;15.48;76.79
75420;BME280;63998;52.488;13.428;2022-10-30T04:15:17;101288.91;;;15.49;76.54
75420;BME280;63998;52.488;13.428;2022-10-30T04:17:51;101301.97;;;15.50;76.63
75420;BME280;63998;52.488;13.428;2022-10-30T04:20:18;101295.84;;;15.53;76.27
75420;BME280;63998;52.488;13.428;2022-10-30T04:22:43;101305.50;;;15.46;76.56
75420;BME280;63998;52.488;13.428;2022-10-30T04:25:09;101306.34;;;15.50;76.29
75420;BME280;63998;52.488;13.428;2022-10-30T04:27:41;101304.59;;;15.52;76.01
75420;BME280;63998;52.488;13.428;2022-10-30T04:30:08;101301.09;;;15.56;76.29
75420;BME280;63998;52.488;13.428;2022-10-30T04:32:36;101298.47;;;15.56;76.29
75420;BME280;63998;52.488;13.428;2022-10-30T04:35:12;101300.22;;;15.54;76.12
75420;BME280;63998;52.488;13.428;2022-10-30T04:37:37;101306.31;;;15.53;76.22
75420;BME280;63998;52.488;13.428;2022-10-30T04:40:06;101322.94;;;15.49;75.96
75420;BME280;63998;52.488;13.428;2022-10-30T04:42:31;101328.19;;;15.45;76.02
75420;BME280;63998;52.488;13.428;2022-10-30T04:44:56;101311.66;;;15.43;76.50
75420;BME280;63998;52.488;13.428;2022-10-30T04:47:22;101323.00;;;15.42;76.37
75420;BME280;63998;52.488;13.428;2022-10-30T04:49:47;101348.31;;;15.43;76.54
75420;BME280;63998;52.488;13.428;2022-10-30T04:52:15;101336.91;;;15.46;76.33
75420;BME280;63998;52.488;13.428;2022-10-30T04:54:43;101316.91;;;15.40;76.26
75420;BME280;63998;52.488;13.428;2022-10-30T04:57:09;101309.97;;;15.33;76.22
75420;BME280;63998;52.488;13.428;2022-10-30T04:59:34;101321.50;;;15.13;76.50
75420;BME280;63998;52.488;13.428;2022-10-30T05:02:00;101319.81;;;15.05;76.83
75420;BME280;63998;52.488;13.428;2022-10-30T05:04:25;101309.38;;;15.01;77.29
75420;BME280;63998;52.488;13.428;2022-10-30T05:06:53;101291.94;;;15.01;77.40
75420;BME280;63998;52.488;13.428;2022-10-30T05:09:18;101308.47;;;15.08;77.36
75420;BME280;63998;52.488;13.428;2022-10-30T05:11:46;101313.69;;;15.08;77.20
75420;BME280;63998;52.488;13.428;2022-10-30T05:14:11;101308.38;;;15.17;77.09
75420;BME280;63998;52.488;13.428;2022-10-30T05:16:39;101310.06;;;15.24;77.11
75420;BME280;63998;52.488;13.428;2022-10-30T05:19:07;101318.84;;;15.17;76.90
75420;BME280;63998;52.488;13.428;2022-10-30T05:21:34;101318.84;;;15.17;77.04
75420;BME280;63998;52.488;13.428;2022-10-30T05:24:02;101305.75;;;15.20;76.83
75420;BME280;63998;52.488;13.428;2022-10-30T05:26:27;101305.84;;;15.05;77.03
75420;BME280;63998;52.488;13.428;2022-10-30T05:28:53;101297.13;;;15.07;77.10
75420;BME280;63998;52.488;13.428;2022-10-30T05:31:18;101278.84;;;15.03;77.15
75420;BME280;63998;52.488;13.428;2022-10-30T05:33:43;101282.22;;;15.14;77.16
75420;BME280;63998;52.488;13.428;2022-10-30T05:36:09;101270.00;;;15.19;77.07
75420;BME280;63998;52.488;13.428;2022-10-30T05:38:34;101271.75;;;15.14;77.03
75420;BME280;63998;52.488;13.428;2022-10-30T05:40:59;101267.41;;;15.12;76.87
75420;BME280;63998;52.488;13.428;2022-10-30T05:43:25;101270.09;;;15.07;77.01
75420;BME280;63998;52.488;13.428;2022-10-30T05:45:53;101263.06;;;15.12;76.96
75420;BME280;63998;52.488;13.428;2022-10-30T05:48:18;101268.25;;;15.18;76.85
75420;BME280;63998;52.488;13.428;2022-10-30T05:50:44;101297.91;;;15.20;76.39
75420;BME280;63998;52.488;13.428;2022-10-30T05:53:11;101304.91;;;15.15;76.24
75420;BME280;63998;52.488;13.428;2022-10-30T05:55:42;101292.72;;;15.11;76.16
75420;BME280;63998;52.488;13.428;2022-10-30T05:58:09;101257.84;;;15.09;76.34
75420;BME280;63998;52.488;13.428;2022-10-30T06:00:35;101229.00;;;15.17;76.36
75420;BME280;63998;52.488;13.428;2022-10-30T06:03:02;101252.47;;;15.24;76.25
75420;BME280;63998;52.488;13.428;2022-10-30T06:05:29;101283.88;;;15.24;75.83
75420;BME280;63998;52.488;13.428;2022-10-30T06:07:55;101280.50;;;15.13;76.11
75420;BME280;63998;52.488;13.428;2022-10-30T06:10:22;101246.53;;;15.07;76.24
75420;BME280;63998;52.488;13.428;2022-10-30T06:13:04;101257.03;;;15.01;76.07
75420;BME280;63998;52.488;13.428;2022-10-30T06:15:30;101272.66;;;15.10;75.97
75420;BME280;63998;52.488;13.428;2022-10-30T06:17:56;101268.25;;;15.18;75.61
75420;BME280;63998;52.488;13.428;2022-10-30T06:20:26;101271.66;;;15.26;75.27
75420;BME280;63998;52.488;13.428;2022-10-30T06:23:00;101271.56;;;15.35;75.28
75420;BME280;63998;52.488;13.428;2022-10-30T06:25:27;101269.78;;;15.42;75.05
75420;BME280;63998;52.488;13.428;2022-10-30T06:27:56;101259.28;;;15.43;74.82
75420;BME280;63998;52.488;13.428;2022-10-30T06:30:25;101261.03;;;15.44;74.66
75420;BME280;63998;52.488;13.428;2022-10-30T06:32:58;101254.84;;;15.55;74.74
75420;BME280;63998;52.488;13.428;2022-10-30T06:35:26;101250.41;;;15.60;74.26
75420;BME280;63998;52.488;13.428;2022-10-30T06:37:51;101249.53;;;15.59;73.86
75420;BME280;63998;52.488;13.428;2022-10-30T06:40:21;101240.88;;;15.56;74.27
75420;BME280;63998;52.488;13.428;2022-10-30T06:42:48;101242.72;;;15.43;73.96
75420;BME280;63998;52.488;13.428;2022-10-30T06:45:17;101246.25;;;15.39;74.58
75420;BME280;63998;52.488;13.428;2022-10-30T06:47:43;101252.38;;;15.33;74.76
75420;BME280;63998;52.488;13.428;2022-10-30T06:50:13;101263.78;;;15.29;74.93
75420;BME280;63998;52.488;13.428;2022-10-30T06:52:41;101267.22;;;15.34;75.27
75420;BME280;63998;52.488;13.428;2022-10-30T06:55:09;101277.63;;;15.45;75.01
75420;BME280;63998;52.488;13.428;2022-10-30T06:57:40;101261.81;;;15.54;74.65
75420;BME280;63998;52.488;13.428;2022-10-30T07:00:09;101272.22;;;15.60;74.67
75420;BME280;63998;52.488;13.428;2022-10-30T07:02:35;101279.22;;;15.60;74.26
75420;BME280;63998;52.488;13.428;2022-10-30T07:05:03;101279.28;;;15.49;74.15
75420;BME280;63998;52.488;13.428;2022-10-30T07:07:28;101287.13;;;15.51;74.27
75420;BME280;63998;52.488;13.428;2022-10-30T07:09:54;101288.91;;;15.49;74.08
75420;BME280;63998;52.488;13.428;2022-10-30T07:12:19;101289.78;;;15.48;74.90
75420;BME280;63998;52.488;13.428;2022-10-30T07:14:45;101301.13;;;15.46;74.18
75420;BME280;63998;52.488;13.428;2022-10-30T07:17:10;101298.47;;;15.53;74.15
75420;BME280;63998;52.488;13.428;2022-10-30T07:19:35;101306.25;;;15.62;74.33
75420;BME280;63998;52.488;13.428;2022-10-30T07:22:03;101307.13;;;15.64;73.69
75420;BME280;63998;52.488;13.428;2022-10-30T07:24:28;101312.34;;;15.67;73.77
75420;BME280;63998;52.488;13.428;2022-10-30T07:26:56;101306.28;;;15.59;73.84
75420;BME280;63998;52.488;13.428;2022-10-30T07:29:21;101308.03;;;15.60;73.62
75420;BME280;63998;52.488;13.428;2022-10-30T07:31:47;101297.50;;;15.66;74.04
75420;BME280;63998;52.488;13.428;2022-10-30T07:34:15;101320.28;;;15.58;73.79
75420;BME280;63998;52.488;13.428;2022-10-30T07:36:40;101323.72;;;15.63;73.81
75420;BME280;63998;52.488;13.428;2022-10-30T07:39:06;101313.22;;;15.66;74.06
75420;BME280;63998;52.488;13.428;2022-10-30T07:41:33;101324.53;;;15.69;73.85
75420;BME280;63998;52.488;13.428;2022-10-30T07:43:59;101318.31;;;15.81;73.53
75420;BME280;63998;52.488;13.428;2022-10-30T07:46:24;101324.34;;;15.88;73.35
75420;BME280;63998;52.488;13.428;2022-10-30T07:48:49;101315.56;;;15.92;73.50
75420;BME280;63998;52.488;13.428;2022-10-30T07:51:15;101311.16;;;15.95;73.34
75420;BME280;63998;52.488;13.428;2022-10-30T07:53:40;101314.59;;;16.00;72.88
75420;BME280;63998;52.488;13.428;2022-10-30T07:56:05;101319.78;;;16.05;72.97
75420;BME280;63998;52.488;13.428;2022-10-30T07:58:31;101312.66;;;16.17;72.71
75420;BME280;63998;52.488;13.428;2022-10-30T08:00:56;101306.50;;;16.20;72.32
75420;BME280;63998;52.488;13.428;2022-10-30T08:03:21;101309.06;;;16.25;72.10
75420;BME280;63998;52.488;13.428;2022-10-30T08:05:49;101318.66;;;16.26;71.99
75420;BME280;63998;52.488;13.428;2022-10-30T08:08:14;101305.53;;;16.29;72.31
75420;BME280;63998;52.488;13.428;2022-10-30T08:10:42;101326.47;;;16.32;71.87
75420;BME280;63998;52.488;13.428;2022-10-30T08:13:08;101319.50;;;16.31;71.40
75420;BME280;63998;52.488;13.428;2022-10-30T08:15:35;101317.75;;;16.30;71.47
75420;BME280;63998;52.488;13.428;2022-10-30T08:18:03;101314.13;;;16.40;71.46
75420;BME280;63998;52.488;13.428;2022-10-30T08:20:29;101324.59;;;16.41;71.10
75420;BME280;63998;52.488;13.428;2022-10-30T08:22:55;101306.31;;;16.35;71.30
75420;BME280;63998;52.488;13.428;2022-10-30T08:25:25;101314.13;;;16.40;71.00
75420;BME280;63998;52.488;13.428;2022-10-30T08:28:00;101316.03;;;16.26;70.81
75420;BME280;63998;52.488;13.428;2022-10-30T08:30:30;101331.78;;;16.26;71.34
75420;BME280;63998;52.488;13.428;2022-10-30T08:32:58;101303.53;;;16.46;71.64
75420;BME280;63998;52.488;13.428;2022-10-30T08:35:25;101337.75;;;16.38;71.01
75420;BME280;63998;52.488;13.428;2022-10-30T08:37:54;101320.22;;;16.42;70.73
75420;BME280;63998;52.488;13.428;2022-10-30T08:40:20;101322.63;;;16.57;70.47
75420;BME280;63998;52.488;13.428;2022-10-30T08:42:52;101317.34;;;16.63;70.32
75420;BME280;63998;52.488;13.428;2022-10-30T08:45:19;101319.09;;;16.64;70.32
75420;BME280;63998;52.488;13.428;2022-10-30T08:47:45;101320.78;;;16.68;70.01
75420;BME280;63998;52.488;13.428;2022-10-30T08:50:13;101322.56;;;16.66;70.31
75420;BME280;63998;52.488;13.428;2022-10-30T08:52:39;101318.81;;;16.82;70.29
75420;BME280;63998;52.488;13.428;2022-10-30T08:55:04;101317.91;;;16.85;70.09
75420;BME280;63998;52.488;13.428;2022-10-30T08:57:36;101310.19;;;16.74;69.47
75420;BME280;63998;52.488;13.428;2022-10-30T09:00:05;101326.63;;;16.87;69.88
75420;BME280;63998;52.488;13.428;2022-10-30T09:02:32;101329.13;;;16.95;69.35
75420;BME280;63998;52.488;13.428;2022-10-30T09:04:58;101318.41;;;17.10;69.00
75420;BME280;63998;52.488;13.428;2022-10-30T09:07:25;101321.72;;;17.21;68.30
75420;BME280;63998;52.488;13.428;2022-10-30T09:09:51;101319.00;;;17.29;68.03
75420;BME280;63998;52.488;13.428;2022-10-30T09:12:16;101324.16;;;17.32;67.63
75420;BME280;63998;52.488;13.428;2022-10-30T09:14:45;101325.00;;;17.35;67.13
75420;BME280;63998;52.488;13.428;2022-10-30T09:17:15;101319.75;;;17.35;66.54
75420;BME280;63998;52.488;13.428;2022-10-30T09:19:40;101319.75;;;17.35;66.36
75420;BME280;63998;52.488;13.428;2022-10-30T09:22:08;101316.25;;;17.33;66.34
75420;BME280;63998;52.488;13.428;2022-10-30T09:24:36;101306.59;;;17.35;66.07
75420;BME280;63998;52.488;13.428;2022-10-30T09:27:03;101311.88;;;17.34;66.36
75420;BME280;63998;52.488;13.428;2022-10-30T09:29:33;101310.81;;;17.45;66.12
75420;BME280;63998;52.488;13.428;2022-10-30T09:32:03;101308.81;;;17.59;66.19
75420;BME280;63998;52.488;13.428;2022-10-30T09:34:33;101304.19;;;17.75;66.01
75420;BME280;63998;52.488;13.428;2022-10-30T09:37:01;101300.50;;;17.84;65.02
75420;BME280;63998;52.488;13.428;2022-10-30T09:39:26;101294.16;;;17.94;64.89
75420;BME280;63998;52.488;13.428;2022-10-30T09:44:33;101285.09;;;18.10;63.79
75420;BME280;63998;52.488;13.428;2022-10-30T09:49:49;101291.78;;;18.26;63.32
75420;BME280;63998;52.488;13.428;2022-10-30T09:52:28;101288.94;;;18.36;63.10
75420;BME280;63998;52.488;13.428;2022-10-30T10:00:42;101290.16;;;18.62;61.69
75420;BME280;63998;52.488;13.428;2022-10-30T10:03:39;101289.97;;;18.70;61.47
75420;BME280;63998;52.488;13.428;2022-10-30T10:06:13;101301.06;;;18.83;61.33
75420;BME280;63998;52.488;13.428;2022-10-30T10:08:45;101301.78;;;18.91;60.91
75420;BME280;63998;52.488;13.428;2022-10-30T10:11:28;101312.09;;;19.00;60.47
75420;BME280;63998;52.488;13.428;2022-10-30T10:14:12;101298.69;;;19.09;59.89
75420;BME280;63998;52.488;13.428;2022-10-30T10:16:42;101301.06;;;19.20;59.89
75420;BME280;63998;52.488;13.428;2022-10-30T10:19:25;101301.66;;;19.31;59.26
75420;BME280;63998;52.488;13.428;2022-10-30T10:22:04;101293.78;;;19.29;58.40
75420;BME280;63998;52.488;13.428;2022-10-30T10:24:38;101284.13;;;19.30;58.52
75420;BME280;63998;52.488;13.428;2022-10-30T10:30:18;101299.53;;;19.45;58.08
75420;BME280;63998;52.488;13.428;2022-10-30T10:51:04;101296.19;;;20.37;55.02
75420;BME280;63998;52.488;13.428;2022-10-30T10:56:03;101284.59;;;20.71;53.73
75420;BME280;63998;52.488;13.428;2022-10-30T11:01:12;101279.44;;;20.94;52.79
75420;BME280;63998;52.488;13.428;2022-10-30T11:03:59;101274.34;;;21.14;52.89
75420;BME280;63998;52.488;13.428;2022-10-30T11:06:29;101274.69;;;21.32;52.03
75420;BME280;63998;52.488;13.428;2022-10-30T11:09:16;101271.03;;;21.36;50.38
75420;BME280;63998;52.488;13.428;2022-10-30T11:11:49;101272.59;;;21.41;49.81
75420;BME280;63998;52.488;13.428;2022-10-30T11:14:23;101269.72;;;21.49;50.71
75420;BME280;63998;52.488;13.428;2022-10-30T11:19:28;101253.53;;;21.81;50.10
75420;BME280;63998;52.488;13.428;2022-10-30T11:21:55;101258.34;;;21.95;49.45
75420;BME280;63998;52.488;13.428;2022-10-30T11:24:29;101269.94;;;22.16;49.22
75420;BME280;63998;52.488;13.428;2022-10-30T11:27:27;101263.94;;;22.34;48.23
75420;BME280;63998;52.488;13.428;2022-10-30T11:29:59;101261.59;;;22.50;47.95
75420;BME280;63998;52.488;13.428;2022-10-30T11:32:32;101259.78;;;22.50;47.59
75420;BME280;63998;52.488;13.428;2022-10-30T11:37:35;101266.50;;;22.37;47.50
75420;BME280;63998;52.488;13.428;2022-10-30T11:43:03;101280.50;;;22.16;48.16
75420;BME280;63998;52.488;13.428;2022-10-30T11:45:33;101280.81;;;22.32;47.75
75420;BME280;63998;52.488;13.428;2022-10-30T11:48:09;101273.34;;;22.65;47.26
75420;BME280;63998;52.488;13.428;2022-10-30T11:50:35;101265.63;;;22.82;46.51
75420;BME280;63998;52.488;13.428;2022-10-30T11:53:12;101269.38;;;22.98;46.32
75420;BME280;63998;52.488;13.428;2022-10-30T11:55:45;101268.56;;;22.96;45.32
75420;BME280;63998;52.488;13.428;2022-10-30T12:00:58;101260.25;;;23.25;44.91
75420;BME280;63998;52.488;13.428;2022-10-30T12:03:32;101265.56;;;23.25;44.63
75420;BME280;63998;52.488;13.428;2022-10-30T12:08:57;101259.03;;;23.75;43.86
75420;BME280;63998;52.488;13.428;2022-10-30T12:11:27;101257.34;;;23.74;43.60
75420;BME280;63998;52.488;13.428;2022-10-30T12:13:53;101262.41;;;23.78;43.42
75420;BME280;63998;52.488;13.428;2022-10-30T12:16:22;101252.91;;;24.12;43.35
75420;BME280;63998;52.488;13.428;2022-10-30T12:21:29;101256.56;;;24.29;42.48
75420;BME280;63998;52.488;13.428;2022-10-30T12:24:02;101258.84;;;24.37;42.31
75420;BME280;63998;52.488;13.428;2022-10-30T12:26:32;101275.31;;;24.06;42.39
75420;BME280;63998;52.488;13.428;2022-10-30T12:29:02;101265.34;;;23.72;43.15
75420;BME280;63998;52.488;13.428;2022-10-30T12:31:38;101279.03;;;24.02;42.92
75420;BME280;63998;52.488;13.428;2022-10-30T12:34:17;101265.75;;;24.02;42.61
75420;BME280;63998;52.488;13.428;2022-10-30T12:36:52;101263.34;;;23.77;43.22
75420;BME280;63998;52.488;13.428;2022-10-30T12:39:45;101261.63;;;23.76;43.28
75420;BME280;63998;52.488;13.428;2022-10-30T12:42:13;101263.09;;;23.63;43.38
75420;BME280;63998;52.488;13.428;2022-10-30T12:44:45;101255.25;;;23.80;43.25
75420;BME280;63998;52.488;13.428;2022-10-30T12:47:16;101259.53;;;24.03;42.83
75420;BME280;63998;52.488;13.428;2022-10-30T12:49:45;101257.97;;;24.18;42.49
75420;BME280;63998;52.488;13.428;2022-10-30T12:54:57;101257.81;;;24.21;42.26
75420;BME280;63998;52.488;13.428;2022-10-30T12:57:29;101249.66;;;24.44;41.85
75420;BME280;63998;52.488;13.428;2022-10-30T13:11:10;101249.31;;;24.88;40.90
75420;BME280;63998;52.488;13.428;2022-10-30T13:13:40;101248.75;;;25.34;40.17
75420;BME280;63998;52.488;13.428;2022-10-30T13:16:21;101248.50;;;25.56;39.59
75420;BME280;63998;52.488;13.428;2022-10-30T13:18:48;101247.31;;;25.79;39.31
75420;BME280;63998;52.488;13.428;2022-10-30T13:21:45;101247.28;;;25.96;38.77
75420;BME280;63998;52.488;13.428;2022-10-30T13:24:35;101231.38;;;26.28;38.38
75420;BME280;63998;52.488;13.428;2022-10-30T13:27:09;101231.53;;;26.56;37.97
75420;BME280;63998;52.488;13.428;2022-10-30T13:32:33;101230.78;;;26.84;37.17
75420;BME280;63998;52.488;13.428;2022-10-30T13:35:25;101237.84;;;26.06;38.43
75420;BME280;63998;52.488;13.428;2022-10-30T13:40:30;101239.66;;;25.73;39.00
75420;BME280;63998;52.488;13.428;2022-10-30T13:53:14;101237.16;;;26.97;36.89
75420;BME280;63998;52.488;13.428;2022-10-30T13:55:43;101234.13;;;27.19;36.88
75420;BME280;63998;52.488;13.428;2022-10-30T13:58:31;101242.72;;;27.08;36.63
75420;BME280;63998;52.488;13.428;2022-10-30T14:01:00;101238.47;;;27.20;36.40
75420;BME280;63998;52.488;13.428;2022-10-30T14:11:04;101235.38;;;26.98;36.55
75420;BME280;63998;52.488;13.428;2022-10-30T14:16:40;101240.19;;;27.21;36.59
75420;BME280;63998;52.488;13.428;2022-10-30T14:19:10;101231.50;;;27.47;35.98
75420;BME280;63998;52.488;13.428;2022-10-30T14:21:41;101240.91;;;27.69;35.75
75420;BME280;63998;52.488;13.428;2022-10-30T14:26:54;101245.00;;;27.74;35.27
75420;BME280;63998;52.488;13.428;2022-10-30T14:32:27;101248.44;;;27.46;35.85
75420;BME280;63998;52.488;13.428;2022-10-30T14:37:15;101246.63;;;27.63;36.11
75420;BME280;63998;52.488;13.428;2022-10-30T14:39:44;101255.97;;;27.56;36.32
75420;BME280;63998;52.488;13.428;2022-10-30T14:42:27;101242.72;;;27.38;36.30
75420;BME280;63998;52.488;13.428;2022-10-30T14:45:00;101248.69;;;26.98;37.28
75420;BME280;63998;52.488;13.428;2022-10-30T14:58:26;101245.66;;;26.42;38.16
75420;BME280;63998;52.488;13.428;2022-10-30T15:04:03;101247.63;;;26.22;39.09
75420;BME280;63998;52.488;13.428;2022-10-30T15:06:56;101247.44;;;25.93;39.44